Time;durP1;ratioP1;P1;durP2;ratioP2;P2;SDS_P1;SDS_P2;PMS_P1;PMS_P2;Temp;Humidity;BMP_temperature;BMP_pressure;BME280_temperature;BME280_humidity;BME280_pressure;Samples;Min_cycle;Max_cycle;Signal;HPM_P1;HPM_P2
2021/11/15 00:02:10;;;;;;;;;;;;;;;;;;5136616;27;19916;-91
2021/11/15 00:04:36;;;;;;;;;;;;;;;;;;5136664;27;19919;-90
2021/11/15 00:07:01;;;;;;;;;;;;;;;;;;5118233;27;20431;-91
2021/11/15 00:09:27;;;;;;;;;;;;;;;;;;5136506;27;20018;-89
2021/11/15 00:11:53;;;;;;;;;;;;;;;;;;5136427;27;20264;-91
2021/11/15 00:14:19;;;;;;;;;;;;;;;;;;5136376;27;19916;-88
2021/11/15 00:16:44;;;;;;;;;;;;;;;;;;5135936;27;20398;-87
2021/11/15 00:19:10;;;;;;;;;;;;;;;;;;5136357;27;19915;-88
2021/11/15 00:21:35;;;;;;;;;;;;;;;;;;5136001;27;19962;-84
2021/11/15 00:24:01;;;;;;;;;;;;;;;;;;5117827;27;19921;-90
2021/11/15 00:26:26;;;;;;;;;;;;;;;;;;5136179;27;20007;-90
2021/11/15 00:28:52;;;;;;;;;;;;;;;;;;5136342;27;20287;-89
2021/11/15 00:31:19;;;;;;;;;;;;;;;;;;5117694;27;19915;-90
2021/11/15 00:33:45;;;;;;;;;;;;;;;;;;5135993;27;19915;-90
2021/11/15 00:36:10;;;;;;;;;;;;;;;;;;5135945;27;20409;-89
2021/11/15 00:38:35;;;;;;;;;;;;;;;;;;5135941;27;19911;-89
2021/11/15 00:41:01;;;;;;;;;;;;;;;;;;5135830;27;19960;-89
2021/11/15 00:43:26;;;;;;;;;;;;;;;;;;5136033;27;19919;-89
2021/11/15 00:45:52;;;;;;;;;;;;;;;;;;5135850;27;19926;-89
2021/11/15 00:48:17;;;;;;;;;;;;;;;;;;5135823;27;19923;-89
2021/11/15 00:50:43;;;;;;;;;;;;;;;;;;5117344;27;19915;-86
2021/11/15 00:53:09;;;;;;;;;;;;;;;;;;5135571;27;19915;-89
2021/11/15 00:55:34;;;;;;;;;;;;;;;;;;5135637;27;20256;-87
2021/11/15 00:58:00;;;;;;;;;;;;;;;;;;5135611;27;19911;-90
2021/11/15 01:00:27;;;;;;;;;;;;;;;;;;5135579;27;19915;-88
2021/11/15 01:02:53;;;;;;;;;;;;;;;;;;5117056;27;19911;-89
2021/11/15 01:05:18;;;;;;;;;;;;;;;;;;5117039;27;19916;-90
2021/11/15 01:07:44;;;;;;;;;;;;;;;;;;5135652;27;19916;-88
2021/11/15 01:10:10;;;;;;;;;;;;;;;;;;5135316;27;19964;-89
2021/11/15 01:12:36;;;;;;;;;;;;;;;;;;5135273;27;19915;-89
2021/11/15 01:15:02;;;;;;;;;;;;;;;;;;5135279;27;19922;-89
2021/11/15 01:17:28;;;;;;;;;;;;;;;;;;5135218;27;19916;-90
2021/11/15 01:19:53;;;;;;;;;;;;;;;;;;5135188;27;19915;-91
2021/11/15 01:22:19;;;;;;;;;;;;;;;;;;5116461;27;19969;-89
2021/11/15 01:24:44;;;;;;;;;;;;;;;;;;5135175;27;19919;-89
2021/11/15 01:27:10;;;;;;;;;;;;;;;;;;5134346;27;19922;-89
2021/11/15 01:29:35;;;;;;;;;;;;;;;;;;5135026;27;19915;-88
2021/11/15 01:32:01;;;;;;;;;;;;;;;;;;5135109;27;19951;-89
2021/11/15 01:34:27;;;;;;;;;;;;;;;;;;5134912;27;20373;-89
2021/11/15 01:36:53;;;;;;;;;;;;;;;;;;5134968;27;19950;-86
2021/11/15 01:39:18;;;;;;;;;;;;;;;;;;5134972;27;19938;-89
2021/11/15 01:41:44;;;;;;;;;;;;;;;;;;5134938;27;19915;-90
2021/11/15 01:44:09;;;;;;;;;;;;;;;;;;5135136;27;19958;-89
2021/11/15 01:46:34;;;;;;;;;;;;;;;;;;5134825;27;19919;-89
2021/11/15 01:49:00;;;;;;;;;;;;;;;;;;5134798;28;19915;-87
2021/11/15 01:51:25;;;;;;;;;;;;;;;;;;5134797;28;19915;-89
2021/11/15 01:53:51;;;;;;;;;;;;;;;;;;5134851;28;20006;-89
2021/11/15 01:56:16;;;;;;;;;;;;;;;;;;5134913;28;19916;-89
2021/11/15 01:58:42;;;;;;;;;;;;;;;;;;5134850;28;20008;-82
2021/11/15 02:01:08;;;;;;;;;;;;;;;;;;5135045;28;19916;-89
2021/11/15 02:03:33;;;;;;;;;;;;;;;;;;5134701;28;19922;-88
2021/11/15 02:06:00;;;;;;;;;;;;;;;;;;5134717;28;19957;-91
2021/11/15 02:08:25;;;;;;;;;;;;;;;;;;5134910;28;20268;-87
2021/11/15 02:10:51;;;;;;;;;;;;;;;;;;5135000;28;19922;-90
2021/11/15 02:13:17;;;;;;;;;;;;;;;;;;5134619;28;20011;-91
2021/11/15 02:15:43;;;;;;;;;;;;;;;;;;5134686;28;20355;-91
2021/11/15 02:18:08;;;;;;;;;;;;;;;;;;5134706;28;19923;-90
2021/11/15 02:20:45;;;;;;;;;;;;;;;;;;5134598;28;20002;-90
2021/11/15 02:23:11;;;;;;;;;;;;;;;;;;5134838;28;19972;-91
2021/11/15 02:25:37;;;;;;;;;;;;;;;;;;5134495;28;20332;-89
2021/11/15 02:28:03;;;;;;;;;;;;;;;;;;5134758;28;19916;-90
2021/11/15 02:30:29;;;;;;;;;;;;;;;;;;5134471;28;19923;-89
2021/11/15 02:32:55;;;;;;;;;;;;;;;;;;5134570;28;20064;-91
2021/11/15 02:35:21;;;;;;;;;;;;;;;;;;5134408;28;20406;-90
2021/11/15 02:37:47;;;;;;;;;;;;;;;;;;5134471;28;19923;-89
2021/11/15 02:40:14;;;;;;;;;;;;;;;;;;5137411;27;20294;-90
2021/11/15 02:42:39;;;;;;;;;;;;;;;;;;5138162;27;19919;-92
2021/11/15 02:45:06;;;;;;;;;;;;;;;;;;5138231;27;19919;-90
2021/11/15 02:47:32;;;;;;;;;;;;;;;;;;5138550;27;19957;-91
2021/11/15 02:49:57;;;;;;;;;;;;;;;;;;5138115;27;20333;-91
2021/11/15 02:52:23;;;;;;;;;;;;;;;;;;5119617;27;19915;-91
2021/11/15 02:54:49;;;;;;;;;;;;;;;;;;5138083;27;19920;-90
2021/11/15 02:57:16;;;;;;;;;;;;;;;;;;5138000;27;19974;-90
2021/11/15 02:59:42;;;;;;;;;;;;;;;;;;5137955;27;19923;-90
2021/11/15 03:02:07;;;;;;;;;;;;;;;;;;5137842;27;20302;-91
2021/11/15 03:04:32;;;;;;;;;;;;;;;;;;5119431;27;20294;-91
2021/11/15 03:06:58;;;;;;;;;;;;;;;;;;5137810;27;20002;-91
2021/11/15 03:09:23;;;;;;;;;;;;;;;;;;5137635;27;19915;-90
2021/11/15 03:11:49;;;;;;;;;;;;;;;;;;5137751;27;20402;-91
2021/11/15 03:14:14;;;;;;;;;;;;;;;;;;5137657;27;19926;-90
2021/11/15 03:16:40;;;;;;;;;;;;;;;;;;5137741;27;19919;-90
2021/11/15 03:19:05;;;;;;;;;;;;;;;;;;5137498;27;19969;-89
2021/11/15 03:21:31;;;;;;;;;;;;;;;;;;5137312;27;20349;-90
2021/11/15 03:23:57;;;;;;;;;;;;;;;;;;5137454;27;20357;-89
2021/11/15 03:26:24;;;;;;;;;;;;;;;;;;5137343;27;19911;-90
2021/11/15 03:28:50;;;;;;;;;;;;;;;;;;5137346;27;20398;-89
2021/11/15 03:31:35;;;;;;;;;;;;;;;;;;5137282;27;20018;-89
2021/11/15 03:34:18;;;;;;;;;;;;;;;;;;5137384;27;19915;-89
2021/11/15 03:36:44;;;;;;;;;;;;;;;;;;5137207;27;19922;-90
2021/11/15 03:39:10;;;;;;;;;;;;;;;;;;5137303;27;20359;-90
2021/11/15 03:41:37;;;;;;;;;;;;;;;;;;5137130;27;19930;-90
2021/11/15 03:44:03;;;;;;;;;;;;;;;;;;5137036;27;19945;-90
2021/11/15 03:46:29;;;;;;;;;;;;;;;;;;5137033;27;20052;-91
2021/11/15 03:48:55;;;;;;;;;;;;;;;;;;5136964;27;19972;-91
2021/11/15 03:51:20;;;;;;;;;;;;;;;;;;5136422;27;19916;-91
2021/11/15 03:53:46;;;;;;;;;;;;;;;;;;5136848;27;19922;-91
2021/11/15 03:56:14;;;;;;;;;;;;;;;;;;5136817;27;20007;-91
2021/11/15 03:58:40;;;;;;;;;;;;;;;;;;5136802;27;20398;-90
2021/11/15 04:01:05;;;;;;;;;;;;;;;;;;5141669;27;19908;-88
2021/11/15 04:03:33;;;;;;;;;;;;;;;;;;5161336;27;19966;-89
2021/11/15 04:06:11;;;;;;;;;;;;;;;;;;5160946;27;19925;-86
2021/11/15 04:08:37;;;;;;;;;;;;;;;;;;5160530;27;19906;-89
2021/11/15 04:11:03;;;;;;;;;;;;;;;;;;5160661;27;19939;-85
2021/11/15 04:13:35;;;;;;;;;;;;;;;;;;5160961;27;19959;-84
2021/11/15 04:16:02;;;;;;;;;;;;;;;;;;5161285;27;19904;-89
2021/11/15 04:18:30;;;;;;;;;;;;;;;;;;5153964;27;19926;-91
2021/11/15 04:20:59;;;;;;;;;;;;;;;;;;5136375;27;19945;-84
2021/11/15 04:23:25;;;;;;;;;;;;;;;;;;5136671;27;20103;-92
2021/11/15 04:25:51;;;;;;;;;;;;;;;;;;5136283;27;19950;-89
2021/11/15 04:28:16;;;;;;;;;;;;;;;;;;5136227;27;19916;-87
2021/11/15 04:30:42;;;;;;;;;;;;;;;;;;5136162;27;19919;-88
2021/11/15 04:33:08;;;;;;;;;;;;;;;;;;5136007;27;20022;-90
2021/11/15 04:35:33;;;;;;;;;;;;;;;;;;5136150;27;19959;-91
2021/11/15 04:38:00;;;;;;;;;;;;;;;;;;5136846;27;19915;-90
2021/11/15 04:40:25;;;;;;;;;;;;;;;;;;5136247;27;19971;-87
2021/11/15 04:42:51;;;;;;;;;;;;;;;;;;5136040;27;20002;-90
2021/11/15 04:45:16;;;;;;;;;;;;;;;;;;5136127;27;19916;-88
2021/11/15 04:47:42;;;;;;;;;;;;;;;;;;5135933;27;19915;-90
2021/11/15 04:50:09;;;;;;;;;;;;;;;;;;5135829;27;19923;-90
2021/11/15 04:52:34;;;;;;;;;;;;;;;;;;5135928;27;20268;-90
2021/11/15 04:54:59;;;;;;;;;;;;;;;;;;5135859;27;19923;-89
2021/11/15 04:57:25;;;;;;;;;;;;;;;;;;5131311;27;19925;-89
2021/11/15 04:59:51;;;;;;;;;;;;;;;;;;5132881;27;20840;-91
2021/11/15 05:02:16;;;;;;;;;;;;;;;;;;5132738;27;19921;-84
2021/11/15 05:04:42;;;;;;;;;;;;;;;;;;5132519;27;19915;-90
2021/11/15 05:07:07;;;;;;;;;;;;;;;;;;5121254;27;19959;-92
2021/11/15 05:09:34;;;;;;;;;;;;;;;;;;5114157;28;20325;-92
2021/11/15 05:12:00;;;;;;;;;;;;;;;;;;5114733;28;19961;-90
2021/11/15 05:14:25;;;;;;;;;;;;;;;;;;5124134;27;19923;-91
2021/11/15 05:16:51;;;;;;;;;;;;;;;;;;5134934;27;20355;-91
2021/11/15 05:19:17;;;;;;;;;;;;;;;;;;5134798;27;19911;-92
2021/11/15 05:21:42;;;;;;;;;;;;;;;;;;5135356;27;19920;-92
2021/11/15 05:24:08;;;;;;;;;;;;;;;;;;5134634;27;19922;-88
2021/11/15 05:26:34;;;;;;;;;;;;;;;;;;5134339;27;20394;-91
2021/11/15 05:28:59;;;;;;;;;;;;;;;;;;5134959;27;19916;-91
2021/11/15 05:31:25;;;;;;;;;;;;;;;;;;5134696;27;20003;-92
2021/11/15 05:33:50;;;;;;;;;;;;;;;;;;5134342;27;19923;-90
2021/11/15 05:36:16;;;;;;;;;;;;;;;;;;5134645;27;19915;-89
2021/11/15 05:38:41;;;;;;;;;;;;;;;;;;5133247;27;19915;-90
2021/11/15 05:41:07;;;;;;;;;;;;;;;;;;5115446;27;20002;-92
2021/11/15 05:43:32;;;;;;;;;;;;;;;;;;5134097;27;19916;-84
2021/11/15 05:45:58;;;;;;;;;;;;;;;;;;5134059;27;19934;-84
2021/11/15 05:48:24;;;;;;;;;;;;;;;;;;5116671;28;19916;-86
2021/11/15 05:50:49;;;;;;;;;;;;;;;;;;5115803;28;19972;-84
2021/11/15 05:53:16;;;;;;;;;;;;;;;;;;5134643;28;19973;-85
2021/11/15 05:55:42;;;;;;;;;;;;;;;;;;5134795;28;19915;-85
2021/11/15 05:58:08;;;;;;;;;;;;;;;;;;5135073;28;19915;-84
2021/11/15 06:00:33;;;;;;;;;;;;;;;;;;5116372;28;20328;-84
2021/11/15 06:02:59;;;;;;;;;;;;;;;;;;5134610;28;19915;-85
2021/11/15 06:05:25;;;;;;;;;;;;;;;;;;5124675;27;19923;-83
2021/11/15 06:07:51;;;;;;;;;;;;;;;;;;5103514;28;19927;-84
2021/11/15 06:10:17;;;;;;;;;;;;;;;;;;5109163;28;19920;-84
2021/11/15 06:12:43;;;;;;;;;;;;;;;;;;5093848;28;19923;-84
2021/11/15 06:15:09;;;;;;;;;;;;;;;;;;5115251;28;19985;-82
2021/11/15 06:17:35;;;;;;;;;;;;;;;;;;5118142;27;20406;-82
2021/11/15 06:20:01;;;;;;;;;;;;;;;;;;5125553;27;19920;-82
2021/11/15 06:22:26;;;;;;;;;;;;;;;;;;5121954;27;19931;-85
2021/11/15 06:24:52;;;;;;;;;;;;;;;;;;5120773;27;19921;-87
2021/11/15 06:27:18;;;;;;;;;;;;;;;;;;5128057;27;19942;-91
2021/11/15 06:29:44;;;;;;;;;;;;;;;;;;5124816;27;20305;-81
2021/11/15 06:32:10;;;;;;;;;;;;;;;;;;5134512;27;19915;-90
2021/11/15 06:34:36;;;;;;;;;;;;;;;;;;5130577;27;19946;-82
2021/11/15 06:37:02;;;;;;;;;;;;;;;;;;5119603;27;19920;-81
2021/11/15 06:39:28;;;;;;;;;;;;;;;;;;5129103;22;19932;-80
2021/11/15 06:41:54;;;;;;;;;;;;;;;;;;5096175;28;19920;-82
2021/11/15 06:44:24;;;;;;;;;;;;;;;;;;5096154;28;19961;-80
2021/11/15 06:46:50;;;;;;;;;;;;;;;;;;5080069;28;19916;-86
2021/11/15 06:51:41;;;;;;;;;;;;;;;;;;5110966;22;19925;-94
2021/11/15 06:54:10;;;;;;;;;;;;;;;;;;5050673;28;19967;-83
2021/11/15 06:56:35;;;;;;;;;;;;;;;;;;5038062;28;19935;-85
2021/11/15 06:59:01;;;;;;;;;;;;;;;;;;5037810;28;19920;-90
2021/11/15 07:01:27;;;;;;;;;;;;;;;;;;5051949;28;19925;-81
2021/11/15 07:03:52;;;;;;;;;;;;;;;;;;5057672;28;19924;-88
2021/11/15 07:06:18;;;;;;;;;;;;;;;;;;5040352;28;19925;-93
2021/11/15 07:08:43;;;;;;;;;;;;;;;;;;5039558;28;19939;-79
2021/11/15 07:11:09;;;;;;;;;;;;;;;;;;5054543;28;20365;-85
2021/11/15 07:13:34;;;;;;;;;;;;;;;;;;5036799;28;19963;-88
2021/11/15 07:16:00;;;;;;;;;;;;;;;;;;5036160;28;19924;-87
2021/11/15 07:18:27;;;;;;;;;;;;;;;;;;5037983;28;19921;-85
2021/11/15 07:20:54;;;;;;;;;;;;;;;;;;5038373;28;19917;-83
2021/11/15 07:23:19;;;;;;;;;;;;;;;;;;5057009;28;20380;-85
2021/11/15 07:25:45;;;;;;;;;;;;;;;;;;5055966;28;19920;-82
2021/11/15 07:28:10;;;;;;;;;;;;;;;;;;5055133;28;19920;-88
2021/11/15 07:30:36;;;;;;;;;;;;;;;;;;5035288;28;20378;-87
2021/11/15 07:33:02;;;;;;;;;;;;;;;;;;5038320;28;19924;-79
2021/11/15 07:35:27;;;;;;;;;;;;;;;;;;5056131;28;19928;-89
2021/11/15 07:37:53;;;;;;;;;;;;;;;;;;5051328;28;19960;-80
2021/11/15 07:40:19;;;;;;;;;;;;;;;;;;5038968;28;20000;-79
2021/11/15 07:42:44;;;;;;;;;;;;;;;;;;5029754;28;19960;-83
2021/11/15 07:45:10;;;;;;;;;;;;;;;;;;5056177;28;19917;-85
2021/11/15 07:47:36;;;;;;;;;;;;;;;;;;5055541;28;19970;-89
2021/11/15 07:50:04;;;;;;;;;;;;;;;;;;5037622;28;19959;-84
2021/11/15 07:52:31;;;;;;;;;;;;;;;;;;5057051;28;19921;-91
2021/11/15 07:54:57;;;;;;;;;;;;;;;;;;5057613;28;19916;-80
2021/11/15 07:57:22;;;;;;;;;;;;;;;;;;5057348;28;19973;-81
2021/11/15 07:59:48;;;;;;;;;;;;;;;;;;5056702;28;19917;-88
2021/11/15 08:02:13;;;;;;;;;;;;;;;;;;5058287;28;19917;-80
2021/11/15 08:04:39;;;;;;;;;;;;;;;;;;5055521;28;20396;-84
2021/11/15 08:07:05;;;;;;;;;;;;;;;;;;5057188;28;19921;-84
2021/11/15 08:09:31;;;;;;;;;;;;;;;;;;5055545;28;19917;-83
2021/11/15 09:59:31;;;;;;;;;;;;;;;;;;5084750;28;19916;-75
2021/11/15 10:01:58;;;;;;;;;;;;;;;;;;5071725;28;20331;-78
2021/11/15 10:04:24;;;;;;;;;;;;;;;;;;5069968;28;19966;-75
2021/11/15 10:06:52;;;;;;;;;;;;;;;;;;5069183;28;19925;-75
2021/11/15 10:09:29;;;;;;;;;;;;;;;;;;5069647;28;19920;-76
2021/11/15 10:14:29;;;;;;;;;;;;;;;;;;5114199;23;20012;-80
2021/11/15 10:16:58;;;;;;;;;;;;;;;;;;4970762;28;20708;-80
2021/11/15 10:19:24;;;;;;;;;;;;;;;;;;4969764;28;20001;-79
2021/11/15 10:21:51;;;;;;;;;;;;;;;;;;4970800;28;20005;-81
2021/11/15 10:24:26;;;;;;;;;;;;;;;;;;4973835;28;19973;-81
2021/11/15 10:26:58;;;;;;;;;;;;;;;;;;4993202;28;19930;-81
2021/11/15 10:29:24;;;;;;;;;;;;;;;;;;4969897;28;20405;-83
2021/11/15 10:31:52;;;;;;;;;;;;;;;;;;4974510;28;19922;-80
2021/11/15 10:34:20;;;;;;;;;;;;;;;;;;4974651;28;19926;-81
2021/11/15 10:36:47;;;;;;;;;;;;;;;;;;4976649;28;20532;-80
2021/11/15 10:39:16;;;;;;;;;;;;;;;;;;4978260;28;19925;-81
2021/11/15 10:41:42;;;;;;;;;;;;;;;;;;4993858;28;19928;-80
2021/11/15 10:44:10;;;;;;;;;;;;;;;;;;4991569;28;19922;-80
2021/11/15 10:46:37;;;;;;;;;;;;;;;;;;4977505;28;19922;-80
2021/11/15 10:49:04;;;;;;;;;;;;;;;;;;4976732;28;20175;-80
2021/11/15 10:52:02;;;;;;;;;;;;;;;;;;4999645;28;19961;-80
2021/11/15 10:54:43;;;;;;;;;;;;;;;;;;4990792;28;19924;-81
2021/11/15 10:57:17;;;;;;;;;;;;;;;;;;5008990;28;20498;-81
2021/11/15 10:59:43;;;;;;;;;;;;;;;;;;4992483;28;19922;-81
2021/11/15 11:02:25;;;;;;;;;;;;;;;;;;4989883;28;19932;-78
2021/11/15 11:05:10;;;;;;;;;;;;;;;;;;4983947;28;19929;-87
2021/11/15 11:07:37;;;;;;;;;;;;;;;;;;5006099;28;19929;-82
2021/11/15 11:10:04;;;;;;;;;;;;;;;;;;5000965;28;20020;-81
2021/11/15 11:12:34;;;;;;;;;;;;;;;;;;4996617;28;20324;-91
2021/11/15 11:15:21;;;;;;;;;;;;;;;;;;4996333;28;20409;-85
2021/11/15 11:18:17;;;;;;;;;;;;;;;;;;4996388;28;19918;-86
2021/11/15 11:26:12;;;;;;;;;;;;;;;;;;4978592;28;19925;-83
2021/11/15 11:28:39;;;;;;;;;;;;;;;;;;4993053;28;19925;-79
2021/11/15 11:31:06;;;;;;;;;;;;;;;;;;4968795;28;19922;-81
2021/11/15 11:33:32;;;;;;;;;;;;;;;;;;4976736;28;20386;-81
2021/11/15 11:35:58;;;;;;;;;;;;;;;;;;4975476;28;19915;-80
2021/11/15 11:38:24;;;;;;;;;;;;;;;;;;4976351;28;19973;-80
2021/11/15 11:40:53;;;;;;;;;;;;;;;;;;4976784;28;19918;-83
2021/11/15 11:43:19;;;;;;;;;;;;;;;;;;4976666;28;19918;-81
2021/11/15 11:45:45;;;;;;;;;;;;;;;;;;4991576;28;20076;-82
2021/11/15 11:48:10;;;;;;;;;;;;;;;;;;4975465;28;19918;-81
2021/11/15 11:50:37;;;;;;;;;;;;;;;;;;4974841;28;19925;-80
2021/11/15 11:53:07;;;;;;;;;;;;;;;;;;4975432;28;20013;-84
2021/11/15 11:55:33;;;;;;;;;;;;;;;;;;4975638;28;19958;-82
2021/11/15 11:58:18;;;;;;;;;;;;;;;;;;4975577;28;19918;-81
2021/11/15 12:00:54;;;;;;;;;;;;;;;;;;4991013;28;19922;-83
2021/11/15 12:03:22;;;;;;;;;;;;;;;;;;4991264;28;20325;-82
2021/11/15 12:05:49;;;;;;;;;;;;;;;;;;4991206;28;19918;-84
2021/11/15 12:08:14;;;;;;;;;;;;;;;;;;4976266;28;19922;-84
2021/11/15 12:10:56;;;;;;;;;;;;;;;;;;4976186;28;19918;-83
2021/11/15 12:13:23;;;;;;;;;;;;;;;;;;4976124;28;20297;-82
2021/11/15 12:15:59;;;;;;;;;;;;;;;;;;4976017;28;20025;-86
2021/11/15 12:18:33;;;;;;;;;;;;;;;;;;4975911;28;19925;-81
2021/11/15 12:21:05;;;;;;;;;;;;;;;;;;4974922;28;20010;-83
2021/11/15 12:23:31;;;;;;;;;;;;;;;;;;4990864;28;20070;-84
2021/11/15 12:26:22;;;;;;;;;;;;;;;;;;4975880;28;20292;-82
2021/11/15 12:28:48;;;;;;;;;;;;;;;;;;4975858;28;20400;-82
2021/11/15 12:31:15;;;;;;;;;;;;;;;;;;4975701;28;19925;-81
2021/11/15 12:33:42;;;;;;;;;;;;;;;;;;4975719;28;19929;-81
2021/11/15 12:36:09;;;;;;;;;;;;;;;;;;4975655;28;19961;-81
2021/11/15 12:38:54;;;;;;;;;;;;;;;;;;4975566;28;19918;-81
2021/11/15 12:41:21;;;;;;;;;;;;;;;;;;4975590;28;19918;-83
2021/11/15 12:43:49;;;;;;;;;;;;;;;;;;4975498;28;19924;-81
2021/11/15 12:46:18;;;;;;;;;;;;;;;;;;4975468;28;20322;-81
2021/11/15 12:48:47;;;;;;;;;;;;;;;;;;4975503;28;19918;-82
2021/11/15 12:51:17;;;;;;;;;;;;;;;;;;4975392;28;19918;-83
2021/11/15 12:53:48;;;;;;;;;;;;;;;;;;4975354;28;19923;-81
2021/11/15 12:56:15;;;;;;;;;;;;;;;;;;4975255;28;20289;-81
2021/11/15 12:58:48;;;;;;;;;;;;;;;;;;4975188;28;19918;-81
2021/11/15 13:01:15;;;;;;;;;;;;;;;;;;4975539;28;20465;-81
2021/11/15 13:03:42;;;;;;;;;;;;;;;;;;4975474;28;20297;-82
2021/11/15 13:06:08;;;;;;;;;;;;;;;;;;4975198;28;20425;-85
2021/11/15 13:08:34;;;;;;;;;;;;;;;;;;4990363;28;19969;-83
2021/11/15 13:11:03;;;;;;;;;;;;;;;;;;4975055;28;19918;-82
2021/11/15 13:13:29;;;;;;;;;;;;;;;;;;4974806;28;19922;-84
2021/11/15 13:15:54;;;;;;;;;;;;;;;;;;4974956;28;20355;-83
2021/11/15 13:18:19;;;;;;;;;;;;;;;;;;4974869;28;20378;-82
2021/11/15 13:20:47;;;;;;;;;;;;;;;;;;4974856;28;20396;-83
2021/11/15 13:23:13;;;;;;;;;;;;;;;;;;4974836;28;20378;-83
2021/11/15 13:25:38;;;;;;;;;;;;;;;;;;4974809;28;19944;-82
2021/11/15 13:28:04;;;;;;;;;;;;;;;;;;4974697;28;19922;-85
2021/11/15 13:30:29;;;;;;;;;;;;;;;;;;4989849;28;20285;-82
2021/11/15 13:32:56;;;;;;;;;;;;;;;;;;4974528;28;19925;-82
2021/11/15 13:35:22;;;;;;;;;;;;;;;;;;4974841;28;19922;-85
2021/11/15 13:37:52;;;;;;;;;;;;;;;;;;4974859;28;19941;-82
2021/11/15 13:40:18;;;;;;;;;;;;;;;;;;4974852;28;20012;-80
2021/11/15 13:42:44;;;;;;;;;;;;;;;;;;4974772;28;19953;-79
2021/11/15 13:45:12;;;;;;;;;;;;;;;;;;4974742;28;19918;-81
2021/11/15 13:47:37;;;;;;;;;;;;;;;;;;4974608;28;20021;-82
2021/11/15 13:50:04;;;;;;;;;;;;;;;;;;4975852;28;19965;-82
2021/11/15 13:52:29;;;;;;;;;;;;;;;;;;4975046;28;19918;-81
2021/11/15 13:54:55;;;;;;;;;;;;;;;;;;4974744;28;20036;-82
2021/11/15 13:57:24;;;;;;;;;;;;;;;;;;4974124;28;19937;-81
2021/11/15 13:59:50;;;;;;;;;;;;;;;;;;4974578;28;19918;-82
2021/11/15 14:02:15;;;;;;;;;;;;;;;;;;4974411;28;19921;-82
2021/11/15 14:04:41;;;;;;;;;;;;;;;;;;4974190;28;20028;-82
2021/11/15 14:07:07;;;;;;;;;;;;;;;;;;4974124;28;20281;-83
2021/11/15 14:09:32;;;;;;;;;;;;;;;;;;4972625;28;20385;-83
2021/11/15 14:11:57;;;;;;;;;;;;;;;;;;4973801;28;19929;-84
2021/11/15 14:14:23;;;;;;;;;;;;;;;;;;4973819;28;19923;-82
2021/11/15 14:16:49;;;;;;;;;;;;;;;;;;4972965;28;20005;-82
2021/11/15 14:19:14;;;;;;;;;;;;;;;;;;4974079;28;20436;-81
2021/11/15 14:21:40;;;;;;;;;;;;;;;;;;4974245;28;19918;-82
2021/11/15 14:24:05;;;;;;;;;;;;;;;;;;4974238;28;19965;-81
2021/11/15 14:26:31;;;;;;;;;;;;;;;;;;4974211;28;20014;-83
2021/11/15 14:28:56;;;;;;;;;;;;;;;;;;4974095;28;20416;-82
2021/11/15 14:31:22;;;;;;;;;;;;;;;;;;4974199;28;19968;-81
2021/11/15 14:33:47;;;;;;;;;;;;;;;;;;4974060;28;19924;-82
2021/11/15 14:36:13;;;;;;;;;;;;;;;;;;4974049;28;19919;-81
2021/11/15 14:38:38;;;;;;;;;;;;;;;;;;4973992;28;19922;-82
2021/11/15 14:41:04;;;;;;;;;;;;;;;;;;4974052;28;19922;-82
2021/11/15 14:43:30;;;;;;;;;;;;;;;;;;4973877;28;19926;-82
2021/11/15 14:45:56;;;;;;;;;;;;;;;;;;4976981;28;19918;-82
2021/11/15 14:48:22;;;;;;;;;;;;;;;;;;4977180;28;19937;-83
2021/11/15 14:50:48;;;;;;;;;;;;;;;;;;4977655;28;19925;-83
2021/11/15 14:53:13;;;;;;;;;;;;;;;;;;4977532;28;20305;-83
2021/11/15 14:55:39;;;;;;;;;;;;;;;;;;4977532;28;19918;-82
2021/11/15 14:58:05;;;;;;;;;;;;;;;;;;4976935;28;19926;-84
2021/11/15 15:00:33;;;;;;;;;;;;;;;;;;4976930;28;19979;-84
2021/11/15 15:02:58;;;;;;;;;;;;;;;;;;4977380;28;19945;-83
2021/11/15 15:05:24;;;;;;;;;;;;;;;;;;4977275;28;19968;-84
2021/11/15 15:07:50;;;;;;;;;;;;;;;;;;4992251;28;20369;-83
2021/11/15 15:10:20;;;;;;;;;;;;;;;;;;4977289;28;19914;-85
2021/11/15 15:12:47;;;;;;;;;;;;;;;;;;4977161;28;19926;-85
2021/11/15 15:15:17;;;;;;;;;;;;;;;;;;4977340;28;19922;-89
2021/11/15 15:17:45;;;;;;;;;;;;;;;;;;4992113;28;19919;-86
2021/11/15 15:20:11;;;;;;;;;;;;;;;;;;4977179;28;20373;-85
2021/11/15 15:22:37;;;;;;;;;;;;;;;;;;4977135;28;20009;-82
2021/11/15 15:25:02;;;;;;;;;;;;;;;;;;4977175;28;20298;-91
2021/11/15 15:27:28;;;;;;;;;;;;;;;;;;4977044;28;19921;-85
2021/11/15 15:29:54;;;;;;;;;;;;;;;;;;4975674;28;20430;-84
2021/11/15 15:32:20;;;;;;;;;;;;;;;;;;4976958;28;19930;-81
2021/11/15 15:34:46;;;;;;;;;;;;;;;;;;4976986;28;20255;-82
2021/11/15 15:37:11;;;;;;;;;;;;;;;;;;4976801;28;19929;-85
2021/11/15 15:39:37;;;;;;;;;;;;;;;;;;4976798;28;19918;-82
2021/11/15 15:42:04;;;;;;;;;;;;;;;;;;4976797;28;20402;-83
2021/11/15 15:44:29;;;;;;;;;;;;;;;;;;4976870;28;19924;-83
2021/11/15 15:47:19;;;;;;;;;;;;;;;;;;4976701;28;19996;-83
2021/11/15 15:49:46;;;;;;;;;;;;;;;;;;4977000;28;19918;-83
2021/11/15 15:52:11;;;;;;;;;;;;;;;;;;4976586;28;19922;-83
2021/11/15 15:54:37;;;;;;;;;;;;;;;;;;4976665;28;20410;-83
2021/11/15 15:57:02;;;;;;;;;;;;;;;;;;4976432;28;20025;-82
2021/11/15 15:59:28;;;;;;;;;;;;;;;;;;4976400;28;20016;-82
2021/11/15 16:01:53;;;;;;;;;;;;;;;;;;4991408;28;19918;-82
2021/11/15 16:04:23;;;;;;;;;;;;;;;;;;4976306;28;19918;-83
2021/11/15 16:19:51;;;;;;;;;;;;;;;;;;4976088;28;19925;-81
2021/11/15 16:22:17;;;;;;;;;;;;;;;;;;4976064;28;20021;-81
2021/11/15 16:24:42;;;;;;;;;;;;;;;;;;4976110;28;19957;-82
2021/11/15 16:27:08;;;;;;;;;;;;;;;;;;4974706;28;20366;-82
2021/11/15 16:29:34;;;;;;;;;;;;;;;;;;4976040;28;19973;-82
2021/11/15 16:32:00;;;;;;;;;;;;;;;;;;4976169;28;19918;-87
2021/11/15 16:34:25;;;;;;;;;;;;;;;;;;4975755;28;19922;-86
2021/11/15 16:36:51;;;;;;;;;;;;;;;;;;4975625;28;20017;-85
2021/11/15 16:39:18;;;;;;;;;;;;;;;;;;4975592;28;20306;-81
2021/11/15 16:41:44;;;;;;;;;;;;;;;;;;4975684;28;20279;-83
2021/11/15 16:44:16;;;;;;;;;;;;;;;;;;4975526;28;19919;-84
2021/11/15 16:46:42;;;;;;;;;;;;;;;;;;4975678;28;19922;-82
2021/11/15 16:49:07;;;;;;;;;;;;;;;;;;4975429;28;20040;-82
2021/11/15 16:51:33;;;;;;;;;;;;;;;;;;4975461;28;20013;-81
2021/11/15 16:54:02;;;;;;;;;;;;;;;;;;4975451;28;19918;-82
2021/11/15 16:56:29;;;;;;;;;;;;;;;;;;4975346;28;19922;-82
2021/11/15 16:58:55;;;;;;;;;;;;;;;;;;4989637;28;19918;-82
2021/11/15 17:01:21;;;;;;;;;;;;;;;;;;4975213;28;20298;-81
2021/11/15 17:03:47;;;;;;;;;;;;;;;;;;4973941;28;19923;-80
2021/11/15 17:06:13;;;;;;;;;;;;;;;;;;4975110;28;19926;-82
2021/11/15 17:08:39;;;;;;;;;;;;;;;;;;4974669;28;19922;-85
2021/11/15 17:11:07;;;;;;;;;;;;;;;;;;4975160;28;19926;-83
2021/11/15 17:13:43;;;;;;;;;;;;;;;;;;4974729;28;19923;-83
2021/11/15 17:16:12;;;;;;;;;;;;;;;;;;4974992;28;19965;-83
2021/11/15 17:18:40;;;;;;;;;;;;;;;;;;4974903;28;19924;-82
2021/11/15 17:21:06;;;;;;;;;;;;;;;;;;4974966;28;20374;-83
2021/11/15 17:23:32;;;;;;;;;;;;;;;;;;4974837;28;19925;-83
2021/11/15 17:25:58;;;;;;;;;;;;;;;;;;4974776;28;20013;-84
2021/11/15 17:28:24;;;;;;;;;;;;;;;;;;4974814;28;19918;-83
2021/11/15 17:30:50;;;;;;;;;;;;;;;;;;4974759;28;19921;-82
2021/11/15 17:33:16;;;;;;;;;;;;;;;;;;4974787;28;19922;-82
2021/11/15 17:35:42;;;;;;;;;;;;;;;;;;4974734;28;20389;-84
2021/11/15 17:38:13;;;;;;;;;;;;;;;;;;4989482;28;19918;-83
2021/11/15 17:40:39;;;;;;;;;;;;;;;;;;4974737;28;19997;-84
2021/11/15 17:43:04;;;;;;;;;;;;;;;;;;4974623;28;20005;-84
2021/11/15 17:45:35;;;;;;;;;;;;;;;;;;4974607;28;19918;-83
2021/11/15 17:48:02;;;;;;;;;;;;;;;;;;4974636;28;19968;-82
2021/11/15 17:50:32;;;;;;;;;;;;;;;;;;4974555;28;20018;-82
2021/11/15 17:52:57;;;;;;;;;;;;;;;;;;4974493;28;19929;-83
2021/11/15 17:58:05;;;;;;;;;;;;;;;;;;4974749;28;20392;-83
2021/11/15 18:00:32;;;;;;;;;;;;;;;;;;4974438;28;19926;-79
2021/11/15 18:03:00;;;;;;;;;;;;;;;;;;4973170;28;19985;-81
2021/11/15 18:05:26;;;;;;;;;;;;;;;;;;4974004;28;20397;-82
2021/11/15 18:07:51;;;;;;;;;;;;;;;;;;4974440;28;20012;-83
2021/11/15 18:10:17;;;;;;;;;;;;;;;;;;4973903;28;20287;-83
2021/11/15 18:12:44;;;;;;;;;;;;;;;;;;4973838;28;19926;-84
2021/11/15 18:15:12;;;;;;;;;;;;;;;;;;4973994;28;20018;-84
2021/11/15 18:17:38;;;;;;;;;;;;;;;;;;4974222;28;19977;-84
2021/11/15 18:20:04;;;;;;;;;;;;;;;;;;4976230;28;20341;-84
2021/11/15 18:22:30;;;;;;;;;;;;;;;;;;4976867;28;20005;-84
2021/11/15 18:24:56;;;;;;;;;;;;;;;;;;4978074;28;20001;-84
2021/11/15 18:27:22;;;;;;;;;;;;;;;;;;4977879;28;19973;-81
2021/11/15 18:29:48;;;;;;;;;;;;;;;;;;4978013;28;19918;-81
2021/11/15 18:32:14;;;;;;;;;;;;;;;;;;4977975;28;19925;-84
2021/11/15 18:34:40;;;;;;;;;;;;;;;;;;4977948;28;20289;-83
2021/11/15 18:37:06;;;;;;;;;;;;;;;;;;4977588;28;19922;-82
2021/11/15 18:39:32;;;;;;;;;;;;;;;;;;4977131;28;19928;-82
2021/11/15 18:41:58;;;;;;;;;;;;;;;;;;4977404;28;20016;-82
2021/11/15 18:44:24;;;;;;;;;;;;;;;;;;4992298;28;19918;-84
2021/11/15 18:46:52;;;;;;;;;;;;;;;;;;4977331;28;19918;-84
2021/11/15 18:49:17;;;;;;;;;;;;;;;;;;4974867;28;19929;-85
2021/11/15 18:51:43;;;;;;;;;;;;;;;;;;4977050;28;19922;-82
2021/11/15 18:54:08;;;;;;;;;;;;;;;;;;4977298;28;20052;-82
2021/11/15 18:56:35;;;;;;;;;;;;;;;;;;4977597;28;19950;-82
2021/11/15 18:59:01;;;;;;;;;;;;;;;;;;4977478;28;20005;-83